Time;durP1;ratioP1;P1;durP2;ratioP2;P2;SDS_P1;SDS_P2;PMS_P1;PMS_P2;Temp;Humidity;BMP_temperature;BMP_pressure;BME280_temperature;BME280_humidity;BME280_pressure;Samples;Min_cycle;Max_cycle;Signal;HPM_P1;HPM_P2
2023/06/15 00:02:31;;;;;;;4.00;3.17;;;11.40;1.00;;;;;;5183274;28;20076;-70
2023/06/15 00:05:05;;;;;;;3.78;3.03;;;11.50;1.00;;;;;;5198890;28;20071;-69
2023/06/15 00:07:37;;;;;;;2.95;2.55;;;11.50;1.00;;;;;;5205377;28;20494;-71
2023/06/15 00:10:10;;;;;;;3.85;2.75;;;11.50;1.00;;;;;;5204805;28;20125;-71
2023/06/15 00:12:41;;;;;;;3.55;2.83;;;11.50;1.00;;;;;;5202784;28;20045;-70
2023/06/15 00:15:13;;;;;;;4.43;2.53;;;11.50;1.00;;;;;;5203564;28;20041;-69
2023/06/15 00:17:49;;;;;;;4.85;2.70;;;11.60;1.00;;;;;;5222168;28;20029;-71
2023/06/15 00:20:28;;;;;;;3.22;2.40;;;11.60;1.00;;;;;;5206188;28;20043;-71
2023/06/15 00:22:59;;;;;;;3.72;2.35;;;11.60;1.00;;;;;;5203005;28;20033;-68
2023/06/15 00:25:34;;;;;;;2.58;2.35;;;11.60;1.00;;;;;;5201118;28;20043;-72
2023/06/15 00:28:05;;;;;;;;;;;11.50;1.00;;;;;;5212169;28;20064;-70
2023/06/15 00:30:39;;;;;;;4.57;2.47;;;11.50;1.00;;;;;;5198468;28;20419;-71
2023/06/15 00:33:10;;;;;;;2.47;2.28;;;11.40;1.00;;;;;;5201989;28;20037;-70
2023/06/15 00:35:42;;;;;;;4.72;2.88;;;11.40;1.00;;;;;;5201622;28;20403;-69
2023/06/15 00:38:16;;;;;;;3.38;2.47;;;11.30;1.00;;;;;;5202517;28;20041;-72
2023/06/15 00:40:48;;;;;;;3.00;2.38;;;11.30;1.00;;;;;;5201660;28;20042;-70
2023/06/15 00:43:25;;;;;;;3.08;2.35;;;11.10;1.00;;;;;;5218731;28;20040;-71
2023/06/15 00:45:56;;;;;;;3.75;2.75;;;11.00;1.00;;;;;;5216645;28;20041;-72
2023/06/15 00:48:29;;;;;;;3.20;2.25;;;11.00;1.00;;;;;;5185404;28;20371;-70
2023/06/15 00:51:03;;;;;;;2.88;2.22;;;11.10;1.00;;;;;;5200097;28;20045;-70
2023/06/15 00:53:40;;;;;;;3.50;2.63;;;11.20;1.00;;;;;;5200706;28;20246;-72
2023/06/15 00:56:16;;;;;;;3.33;2.42;;;11.20;1.00;;;;;;5217871;28;20570;-71
2023/06/15 00:58:52;;;;;;;3.42;2.22;;;11.20;1.00;;;;;;5199591;28;20041;-70
2023/06/15 01:01:27;;;;;;;3.42;2.30;;;11.20;1.00;;;;;;5212669;22;20009;-84
2023/06/15 01:03:59;;;;;;;3.65;3.03;;;11.20;1.00;;;;;;5197646;28;20033;-86
2023/06/15 01:06:37;;;;;;;4.30;2.60;;;11.20;1.00;;;;;;5173975;28;20038;-86
2023/06/15 01:09:14;;;;;;;3.00;2.10;;;11.20;1.00;;;;;;5199032;28;20040;-86
2023/06/15 01:11:52;;;;;;;2.53;2.20;;;11.20;1.00;;;;;;5198059;28;20034;-85
2023/06/15 01:14:29;;;;;;;3.63;2.47;;;11.10;1.00;;;;;;5198106;28;20040;-85
2023/06/15 01:17:07;;;;;;;3.05;2.47;;;11.20;1.00;;;;;;5198052;28;20030;-84
2023/06/15 01:19:57;;;;;;;3.13;2.38;;;11.10;1.00;;;;;;5198503;28;20036;-83
2023/06/15 01:22:49;;;;;;;2.72;2.10;;;11.20;1.00;;;;;;5199384;28;20311;-84
2023/06/15 01:25:33;;;;;;;3.30;2.90;;;11.20;1.00;;;;;;5198372;28;20034;-83
2023/06/15 01:28:06;;;;;;;2.80;2.47;;;11.20;1.00;;;;;;5200663;28;20033;-85
2023/06/15 01:30:42;;;;;;;2.80;2.33;;;11.10;1.00;;;;;;5200946;28;20029;-83
2023/06/15 01:33:21;;;;;;;2.50;2.30;;;11.10;1.00;;;;;;5198183;28;20029;-84
2023/06/15 01:35:57;;;;;;;2.90;2.05;;;11.00;1.00;;;;;;5196547;28;20399;-85
2023/06/15 01:38:30;;;;;;;4.53;2.33;;;11.00;1.00;;;;;;5198360;28;20030;-85
2023/06/15 01:41:07;;;;;;;3.20;2.60;;;11.10;1.00;;;;;;5197421;28;20030;-85
2023/06/15 01:43:44;;;;;;;3.05;2.33;;;11.10;1.00;;;;;;5197684;28;20030;-84
2023/06/15 01:46:17;;;;;;;3.75;2.80;;;11.10;1.00;;;;;;5197561;28;20034;-86
2023/06/15 01:48:50;;;;;;;3.45;2.50;;;11.00;1.00;;;;;;5198143;28;20030;-85
2023/06/15 01:54:51;;;;;;;2.20;2.00;;;10.90;1.00;;;;;;5198582;28;20038;-84
2023/06/15 01:57:22;;;;;;;3.20;2.60;;;10.80;1.00;;;;;;5197353;28;20030;-84
2023/06/15 01:59:56;;;;;;;3.30;2.35;;;10.80;1.00;;;;;;5197070;28;20025;-84
2023/06/15 02:02:46;;;;;;;3.40;2.40;;;10.80;1.00;;;;;;5214716;28;20036;-85
2023/06/15 02:05:24;;;;;;;2.75;2.15;;;10.70;1.00;;;;;;5191129;28;20045;-84
2023/06/15 02:07:55;;;;;;;2.45;2.20;;;10.80;1.00;;;;;;5198133;28;20308;-84
2023/06/15 02:10:27;;;;;;;2.45;2.22;;;10.80;1.00;;;;;;5197566;28;20038;-84
2023/06/15 02:13:07;;;;;;;3.08;2.20;;;10.70;1.00;;;;;;5196726;28;20037;-84
2023/06/15 02:15:38;;;;;;;2.78;2.45;;;10.70;1.00;;;;;;5196747;28;20026;-85
2023/06/15 02:18:14;;;;;;;2.75;2.10;;;10.70;1.00;;;;;;5196918;28;20366;-85
2023/06/15 02:20:51;;;;;;;3.50;2.65;;;10.70;1.00;;;;;;5197250;28;20033;-86
2023/06/15 02:23:22;;;;;;;2.95;2.40;;;10.90;1.00;;;;;;5197270;28;20319;-85
2023/06/15 02:29:21;;;;;;;6.22;2.60;;;11.00;1.00;;;;;;5197365;28;20030;-84
2023/06/15 02:31:52;;;;;;;3.22;2.30;;;10.90;1.00;;;;;;5196538;28;20033;-84
2023/06/15 02:34:30;;;;;;;3.35;2.70;;;10.80;1.00;;;;;;5196792;28;20040;-85
2023/06/15 02:37:08;;;;;;;4.70;2.85;;;10.80;1.00;;;;;;5196590;28;20227;-85
2023/06/15 02:39:40;;;;;;;2.97;2.50;;;10.70;1.00;;;;;;5196993;28;20032;-85
2023/06/15 02:42:17;;;;;;;3.55;2.63;;;10.70;1.00;;;;;;5196578;28;20029;-84
2023/06/15 02:44:51;;;;;;;8.20;2.58;;;10.70;1.00;;;;;;5196409;28;20034;-85
2023/06/15 02:47:27;;;;;;;3.67;3.38;;;10.70;1.00;;;;;;5195848;28;20254;-85
2023/06/15 02:50:02;;;;;;;3.50;3.00;;;10.70;1.00;;;;;;5196332;28;20228;-85
2023/06/15 02:52:36;;;;;;;3.78;2.80;;;10.70;60.20;;;;;;5155984;28;20034;-85
2023/06/15 02:55:08;;;;;;;;;;;10.80;35.40;;;;;;5195369;28;20036;-85
2023/06/15 02:57:50;;;;;;;2.92;2.53;;;10.80;22.90;;;;;;5196946;28;19923;-85
2023/06/15 03:00:23;;;;;;;3.63;2.28;;;10.80;30.80;;;;;;5196242;28;20030;-86
2023/06/15 03:03:00;;;;;;;2.60;2.40;;;10.70;99.90;;;;;;5180367;28;20042;-85
2023/06/15 03:05:32;;;;;;;2.70;2.50;;;10.70;99.90;;;;;;5190628;28;20056;-86
2023/06/15 03:08:06;;;;;;;3.97;2.75;;;10.70;99.90;;;;;;5196714;28;20222;-85
2023/06/15 03:10:38;;;;;;;3.50;3.03;;;10.70;99.90;;;;;;5196313;28;20345;-85
2023/06/15 03:13:14;;;;;;;4.35;3.03;;;10.80;99.90;;;;;;5196194;28;20036;-85
2023/06/15 03:19:17;;;;;;;4.80;3.00;;;11.00;99.90;;;;;;5196668;28;20026;-85
2023/06/15 03:21:55;;;;;;;4.28;3.60;;;11.10;99.90;;;;;;5196192;28;20102;-84
2023/06/15 03:24:30;;;;;;;4.15;3.42;;;11.10;99.90;;;;;;5195914;28;20038;-84
2023/06/15 03:27:06;;;;;;;4.78;3.25;;;11.30;99.90;;;;;;5196644;28;20045;-86
2023/06/15 03:29:41;;;;;;;3.95;3.35;;;11.40;99.90;;;;;;5179820;28;20038;-84
2023/06/15 03:32:12;;;;;;;6.95;3.97;;;11.50;66.10;;;;;;5195765;28;20033;-86
2023/06/15 03:34:46;;;;;;;6.40;4.25;;;11.70;30.30;;;;;;5195610;28;20346;-86
2023/06/15 03:37:18;;;;;;;4.50;3.92;;;11.90;16.50;;;;;;5195790;28;20030;-84
2023/06/15 03:39:49;;;;;;;5.40;3.40;;;12.10;1.00;;;;;;5195558;28;20268;-85
2023/06/15 03:42:26;;;;;;;3.40;3.10;;;12.20;1.00;;;;;;5195908;28;20040;-85
2023/06/15 03:44:58;;;;;;;3.78;3.08;;;12.50;1.00;;;;;;5197590;28;20034;-85
2023/06/15 03:47:32;;;;;;;5.90;4.30;;;12.70;1.00;;;;;;5179928;28;20052;-85
2023/06/15 03:50:06;;;;;;;5.20;3.47;;;12.80;1.00;;;;;;5197677;28;20044;-84
2023/06/15 03:52:39;;;;;;;;;;;12.90;1.00;;;;;;5197319;28;20030;-85
2023/06/15 03:55:13;;;;;;;4.28;3.35;;;12.90;1.00;;;;;;5199548;28;19905;-86
2023/06/15 03:57:44;;;;;;;3.80;3.45;;;13.10;1.00;;;;;;5195536;28;20029;-85
2023/06/15 04:00:20;;;;;;;5.15;3.38;;;13.30;1.00;;;;;;5199506;28;20026;-87
2023/06/15 04:02:52;;;;;;;4.03;3.13;;;13.40;1.00;;;;;;5199729;28;20033;-86
2023/06/15 04:05:26;;;;;;;3.85;2.47;;;13.30;1.00;;;;;;5178277;28;20037;-86
2023/06/15 04:08:03;;;;;;;3.42;2.97;;;13.30;1.00;;;;;;5199767;28;20347;-86
2023/06/15 04:10:37;;;;;;;4.63;3.50;;;13.30;1.00;;;;;;5199455;28;20030;-86
2023/06/15 04:13:08;;;;;;;4.32;2.92;;;13.40;1.00;;;;;;5199612;28;20029;-85
2023/06/15 04:15:39;;;;;;;4.07;3.13;;;13.60;1.00;;;;;;5199478;28;20025;-86
2023/06/15 04:18:11;;;;;;;3.63;2.95;;;13.80;1.00;;;;;;5200249;28;20030;-87
2023/06/15 04:20:47;;;;;;;4.60;3.53;;;14.00;1.00;;;;;;5202546;28;20224;-86
2023/06/15 04:23:22;;;;;;;6.60;3.00;;;14.10;1.00;;;;;;5201905;28;20044;-87
2023/06/15 04:25:58;;;;;;;4.80;2.42;;;14.20;1.00;;;;;;5201825;28;20271;-84
2023/06/15 04:28:30;;;;;;;6.75;2.75;;;14.40;1.00;;;;;;5186245;28;20038;-85
2023/06/15 04:31:10;;;;;;;4.45;2.92;;;14.50;1.00;;;;;;5201777;28;20104;-86
2023/06/15 04:33:42;;;;;;;3.90;2.83;;;14.80;1.00;;;;;;5202111;28;20060;-85
2023/06/15 04:36:13;;;;;;;3.17;2.38;;;14.80;1.00;;;;;;5202510;28;20036;-86
2023/06/15 04:38:49;;;;;;;3.55;2.85;;;14.90;1.00;;;;;;5186115;28;20056;-86
2023/06/15 04:41:22;;;;;;;2.58;2.38;;;15.10;1.00;;;;;;5202301;28;20037;-86
2023/06/15 04:43:54;;;;;;;3.88;2.92;;;15.60;1.00;;;;;;5203899;28;20030;-86
2023/06/15 04:46:29;;;;;;;3.53;2.90;;;16.30;1.00;;;;;;5186330;28;20043;-86
2023/06/15 04:49:08;;;;;;;4.60;3.17;;;16.80;1.00;;;;;;5202656;28;20029;-87
2023/06/15 04:51:48;;;;;;;3.88;2.55;;;17.20;1.00;;;;;;5209332;28;20029;-86
2023/06/15 04:54:44;;;;;;;2.85;2.42;;;17.50;1.00;;;;;;5207789;28;20039;-88
2023/06/15 04:57:17;;;;;;;4.50;3.60;;;17.80;1.00;;;;;;5191656;28;20324;-86
2023/06/15 04:59:56;;;;;;;4.30;2.95;;;18.00;1.00;;;;;;5186246;28;20037;-86
2023/06/15 05:02:33;;;;;;;7.30;3.47;;;18.20;1.00;;;;;;5200450;28;20037;-84
2023/06/15 05:05:05;;;;;;;5.20;3.65;;;18.40;1.00;;;;;;5194317;28;20037;-85
2023/06/15 05:07:36;;;;;;;10.40;3.55;;;18.50;1.00;;;;;;5196785;28;20207;-84
2023/06/15 05:10:09;;;;;;;4.95;2.83;;;18.50;99.90;;;;;;5198595;28;20040;-86
2023/06/15 05:12:43;;;;;;;4.80;2.42;;;18.10;1.00;;;;;;5186094;28;20033;-88
2023/06/15 05:15:27;;;;;;;8.35;3.05;;;18.60;1.00;;;;;;5186635;28;20037;-86
2023/06/15 05:18:04;;;;;;;3.55;3.00;;;18.90;99.90;;;;;;5201039;28;20030;-87
2023/06/15 05:20:40;;;;;;;3.22;2.42;;;19.40;1.00;;;;;;5217240;28;20030;-86
2023/06/15 05:23:14;;;;;;;5.18;2.78;;;19.70;1.00;;;;;;5198775;28;20029;-87
2023/06/15 05:25:48;;;;;;;2.63;2.33;;;20.10;1.00;;;;;;5200057;28;20030;-88
2023/06/15 05:28:19;;;;;;;3.88;2.42;;;20.40;1.00;;;;;;5198905;28;20034;-87
2023/06/15 05:30:53;;;;;;;2.78;2.58;;;20.60;1.00;;;;;;5200737;28;20079;-88
2023/06/15 05:33:31;;;;;;;5.55;2.88;;;20.70;99.90;;;;;;5199271;28;20029;-87
2023/06/15 05:36:03;;;;;;;3.53;2.53;;;20.70;99.90;;;;;;5182761;28;20044;-86
2023/06/15 05:38:40;;;;;;;2.85;2.50;;;20.50;99.90;;;;;;5198634;28;20025;-87
2023/06/15 05:41:14;;;;;;;2.70;2.30;;;20.40;99.90;;;;;;5182353;28;20327;-87
2023/06/15 05:43:46;;;;;;;2.65;2.45;;;20.30;99.90;;;;;;5198144;28;20034;-85
2023/06/15 05:46:25;;;;;;;3.65;2.70;;;20.40;99.90;;;;;;5197214;28;20032;-84
2023/06/15 05:48:58;;;;;;;4.60;2.47;;;20.70;99.90;;;;;;5197903;28;20036;-85
2023/06/15 05:51:29;;;;;;;3.00;2.70;;;20.80;99.90;;;;;;5182177;28;20040;-86
2023/06/15 05:54:02;;;;;;;3.83;2.50;;;21.00;99.90;;;;;;5198760;28;20063;-85
2023/06/15 05:56:33;;;;;;;3.33;2.72;;;21.20;99.90;;;;;;5198359;28;20056;-86
2023/06/15 05:59:06;;;;;;;3.85;2.40;;;21.10;99.90;;;;;;5181005;28;20277;-86
2023/06/15 06:01:37;;;;;;;3.33;2.53;;;20.80;80.00;;;;;;5197107;28;20034;-85
2023/06/15 06:04:10;;;;;;;3.08;2.67;;;20.80;99.90;;;;;;5194440;28;20324;-86
2023/06/15 06:06:41;;;;;;;4.28;3.00;;;21.00;1.00;;;;;;5197010;28;20059;-85
2023/06/15 06:09:13;;;;;;;3.10;2.75;;;21.00;19.50;;;;;;5196575;28;20034;-85
2023/06/15 06:11:47;;;;;;;2.38;2.17;;;20.80;91.20;;;;;;5196696;28;20040;-85
2023/06/15 06:14:18;;;;;;;4.35;2.75;;;20.80;99.90;;;;;;5197321;28;20220;-85
2023/06/15 06:16:53;;;;;;;2.55;2.35;;;20.30;99.90;;;;;;5197576;28;20026;-86
2023/06/15 06:19:27;;;;;;;2.75;2.50;;;20.30;99.90;;;;;;5198069;28;20029;-85
2023/06/15 06:22:03;;;;;;;3.70;2.83;;;20.70;99.90;;;;;;5197290;28;20038;-86
2023/06/15 06:24:39;;;;;;;5.00;3.00;;;20.80;97.40;;;;;;5197734;28;20051;-85
2023/06/15 06:27:11;;;;;;;4.57;3.58;;;21.00;99.90;;;;;;5198407;28;20034;-86
2023/06/15 06:29:43;;;;;;;4.22;3.58;;;21.30;1.00;;;;;;5180774;28;20033;-85
2023/06/15 06:32:20;;;;;;;3.42;2.63;;;21.50;1.00;;;;;;5197201;28;20047;-86
2023/06/15 06:34:54;;;;;;;3.67;2.88;;;21.50;1.00;;;;;;5197542;28;20036;-86
2023/06/15 06:37:28;;;;;;;4.25;3.05;;;21.80;1.00;;;;;;5196711;28;20040;-86
2023/06/15 06:40:03;;;;;;;4.63;3.20;;;21.90;1.00;;;;;;5197552;28;20119;-85
2023/06/15 06:42:34;;;;;;;3.03;2.50;;;22.20;1.00;;;;;;5196800;28;20029;-86
2023/06/15 06:45:09;;;;;;;3.30;2.60;;;22.60;1.00;;;;;;5197063;28;20034;-86
2023/06/15 06:47:48;;;;;;;3.65;2.40;;;22.60;1.00;;;;;;5196514;28;20201;-85
2023/06/15 06:50:19;;;;;;;4.18;2.97;;;23.20;1.00;;;;;;5196441;28;20044;-85
2023/06/15 06:52:52;;;;;;;4.40;2.70;;;23.70;99.90;;;;;;5170211;28;20043;-86
2023/06/15 06:55:24;;;;;;;3.20;2.65;;;24.10;64.00;;;;;;5180733;28;20223;-86
2023/06/15 06:58:00;;;;;;;4.35;2.50;;;24.00;1.00;;;;;;5191772;28;20220;-85
2023/06/15 07:00:32;;;;;;;4.38;3.15;;;24.00;1.00;;;;;;5197438;28;20042;-85
2023/06/15 07:03:04;;;;;;;3.42;2.70;;;24.20;1.00;;;;;;5189905;28;20041;-85
2023/06/15 07:09:03;;;;;;;3.47;2.50;;;23.80;1.00;;;;;;5206903;28;20343;-85
2023/06/15 07:11:35;;;;;;;3.05;2.70;;;24.10;1.00;;;;;;5197192;28;20038;-86
2023/06/15 07:14:07;;;;;;;3.95;3.05;;;24.50;1.00;;;;;;5190250;28;20352;-86
2023/06/15 07:20:07;;;;;;;2.63;2.30;;;25.50;1.00;;;;;;5202398;28;20038;-85
2023/06/15 07:22:38;;;;;;;3.08;2.38;;;25.50;99.90;;;;;;5196199;28;20036;-85
2023/06/15 07:25:09;;;;;;;3.22;2.47;;;25.50;1.00;;;;;;5187592;28;20034;-85
2023/06/15 07:27:41;;;;;;;3.45;2.45;;;25.40;1.00;;;;;;5195884;28;20040;-87
2023/06/15 07:30:13;;;;;;;5.00;2.63;;;25.30;1.00;;;;;;5188280;28;20082;-86
2023/06/15 07:32:44;;;;;;;3.22;2.38;;;25.50;1.00;;;;;;5198181;28;20034;-85
2023/06/15 07:38:44;;;;;;;4.60;2.78;;;24.80;94.70;;;;;;5193954;28;20047;-85
2023/06/15 07:41:15;;;;;;;2.95;2.65;;;24.50;38.20;;;;;;5200503;28;20040;-84
2023/06/15 07:43:51;;;;;;;3.70;2.83;;;24.50;99.90;;;;;;5193639;28;20048;-86
2023/06/15 07:46:26;;;;;;;2.97;2.60;;;24.80;99.90;;;;;;5200319;28;20036;-87
2023/06/15 07:48:57;;;;;;;3.08;2.50;;;25.10;1.00;;;;;;5190245;28;20335;-87
2023/06/15 07:51:30;;;;;;;2.42;2.22;;;25.30;1.00;;;;;;5218370;28;20030;-85
2023/06/15 07:54:01;;;;;;;3.92;2.80;;;25.00;99.90;;;;;;5193821;28;20045;-86
2023/06/15 07:56:38;;;;;;;5.32;2.40;;;24.40;99.90;;;;;;5201997;28;20324;-85
2023/06/15 07:59:11;;;;;;;3.35;3.05;;;24.70;99.90;;;;;;5177407;28;20036;-86
2023/06/15 08:01:43;;;;;;;2.83;2.45;;;24.50;99.90;;;;;;5200948;28;20040;-87
2023/06/15 08:04:15;;;;;;;2.47;2.00;;;24.60;99.90;;;;;;5182261;28;20036;-86
2023/06/15 08:06:49;;;;;;;2.42;1.95;;;24.70;99.90;;;;;;5184376;28;20037;-85
2023/06/15 08:09:22;;;;;;;3.58;2.55;;;25.40;99.90;;;;;;5193710;28;20036;-86
2023/06/15 08:11:53;;;;;;;3.17;2.22;;;25.50;99.90;;;;;;5202923;28;20034;-85
2023/06/15 08:14:27;;;;;;;2.58;2.33;;;25.30;99.90;;;;;;5190040;28;20036;-85
2023/06/15 08:17:19;;;;;;;2.65;2.33;;;24.90;99.90;;;;;;5204154;28;20044;-85
2023/06/15 08:19:51;;;;;;;3.35;2.17;;;25.30;99.90;;;;;;5192764;28;20036;-84
2023/06/15 08:22:22;;;;;;;6.30;2.97;;;26.00;99.90;;;;;;5203024;28;20048;-85
2023/06/15 08:24:57;;;;;;;4.55;2.40;;;26.20;99.90;;;;;;5194367;28;20030;-86
2023/06/15 08:27:29;;;;;;;3.03;2.47;;;26.10;99.90;;;;;;5185085;28;20038;-86
2023/06/15 08:30:04;;;;;;;2.80;2.10;;;26.50;1.00;;;;;;5192841;28;20044;-86
2023/06/15 08:32:39;;;;;;;2.00;1.80;;;27.00;1.00;;;;;;5187983;28;20040;-85
2023/06/15 08:35:11;;;;;;;3.38;2.15;;;27.30;1.00;;;;;;5182617;28;20040;-84
2023/06/15 08:37:42;;;;;;;2.67;2.38;;;26.20;1.00;;;;;;5209398;28;20040;-84
2023/06/15 08:40:20;;;;;;;3.20;2.50;;;25.60;1.00;;;;;;5200964;28;20040;-86
2023/06/15 08:42:59;;;;;;;3.72;2.50;;;25.50;1.00;;;;;;5210426;28;20045;-85
2023/06/15 08:49:02;;;;;;;4.57;2.58;;;25.90;1.00;;;;;;5189036;28;20048;-88
2023/06/15 08:51:47;;;;;;;3.97;2.40;;;25.50;1.00;;;;;;5192754;28;20037;-85
2023/06/15 08:54:21;;;;;;;3.80;2.58;;;25.10;1.00;;;;;;5198718;28;20316;-87
2023/06/15 08:56:55;;;;;;;3.25;2.33;;;25.30;1.00;;;;;;5175929;28;20037;-86
2023/06/15 08:59:29;;;;;;;3.50;2.70;;;24.40;1.00;;;;;;5198755;28;20032;-86
2023/06/15 09:02:07;;;;;;;4.10;2.53;;;24.70;1.00;;;;;;5183778;28;20104;-85
2023/06/15 09:04:39;;;;;;;2.90;2.40;;;25.20;1.00;;;;;;5192392;28;20039;-85
2023/06/15 09:07:14;;;;;;;2.97;2.22;;;26.40;1.00;;;;;;5199796;28;20034;-86
2023/06/15 09:10:14;;;;;;;3.33;2.55;;;25.80;99.90;;;;;;5198295;28;20042;-85
2023/06/15 09:12:55;;;;;;;5.32;2.40;;;26.60;99.90;;;;;;5198062;28;20031;-87
2023/06/15 09:15:31;;;;;;;3.10;2.40;;;27.30;99.90;;;;;;5198634;28;20030;-86
2023/06/15 09:18:02;;;;;;;2.40;2.00;;;28.00;99.90;;;;;;5198736;28;20036;-87
2023/06/15 09:20:38;;;;;;;4.63;2.60;;;27.00;1.00;;;;;;5198877;28;20030;-86
2023/06/15 09:23:13;;;;;;;4.72;2.60;;;27.10;1.00;;;;;;5197962;28;20030;-85
2023/06/15 09:25:52;;;;;;;7.05;2.80;;;26.80;1.00;;;;;;5198180;28;20032;-85
2023/06/15 09:28:31;;;;;;;2.42;2.10;;;27.00;99.90;;;;;;5197757;28;20049;-85
2023/06/15 09:31:02;;;;;;;3.05;2.33;;;27.30;99.90;;;;;;5197683;28;20027;-86
2023/06/15 09:33:36;;;;;;;2.75;2.20;;;27.80;1.00;;;;;;5181365;28;20040;-85
2023/06/15 09:36:07;;;;;;;4.43;2.55;;;27.90;1.00;;;;;;5197595;28;20040;-85
2023/06/15 09:38:41;;;;;;;3.22;2.50;;;27.20;1.00;;;;;;5197645;28;20025;-87
2023/06/15 09:41:14;;;;;;;2.95;2.08;;;26.50;1.00;;;;;;5197830;28;20030;-85
2023/06/15 09:43:45;;;;;;;4.35;2.40;;;26.80;1.00;;;;;;5197668;28;20030;-86
2023/06/15 09:46:19;;;;;;;3.85;2.38;;;27.40;1.00;;;;;;5198038;28;20029;-85
2023/06/15 09:48:50;;;;;;;3.00;2.37;;;27.70;1.00;;;;;;5197310;28;20324;-86
2023/06/15 09:51:27;;;;;;;3.33;2.70;;;27.30;1.00;;;;;;5197147;28;20247;-86
2023/06/15 09:54:01;;;;;;;2.35;2.13;;;27.80;1.00;;;;;;5198553;28;20040;-86
2023/06/15 09:56:35;;;;;;;2.72;2.30;;;28.80;1.00;;;;;;5196072;28;20036;-85
2023/06/15 09:59:07;;;;;;;3.25;2.63;;;28.40;1.00;;;;;;5196874;28;20030;-87
2023/06/15 10:01:38;;;;;;;2.00;1.67;;;29.00;1.00;;;;;;5196979;28;20030;-86
2023/06/15 10:04:10;;;;;;;2.70;2.08;;;28.80;1.00;;;;;;5191189;28;20052;-84
2023/06/15 10:06:44;;;;;;;3.85;2.00;;;28.30;1.00;;;;;;5196997;28;20040;-87
2023/06/15 10:09:18;;;;;;;;;;;27.80;1.00;;;;;;5198065;28;20033;-87
2023/06/15 10:11:52;;;;;;;3.42;1.98;;;27.90;1.00;;;;;;5197653;28;20093;-85
2023/06/15 10:14:31;;;;;;;2.13;1.88;;;26.70;1.00;;;;;;5197026;28;20044;-86
2023/06/15 10:17:12;;;;;;;2.83;1.95;;;26.70;1.00;;;;;;5196733;28;20345;-85
2023/06/15 10:19:46;;;;;;;2.78;2.20;;;27.90;1.00;;;;;;5196940;28;20042;-85
2023/06/15 10:22:18;;;;;;;;;;;29.10;1.00;;;;;;5197897;28;20036;-86
2023/06/15 10:24:51;;;;;;;2.42;2.10;;;29.60;1.00;;;;;;5197486;28;20155;-86
2023/06/15 10:27:25;;;;;;;5.00;2.70;;;29.20;1.00;;;;;;5197189;28;20034;-85
2023/06/15 10:30:10;;;;;;;2.97;2.22;;;28.20;1.00;;;;;;5197369;28;20042;-86
2023/06/15 10:33:19;;;;;;;2.78;2.38;;;27.70;1.00;;;;;;5197068;28;20037;-87
2023/06/15 10:35:58;;;;;;;2.47;2.10;;;26.60;1.00;;;;;;5181910;28;20033;-86
2023/06/15 10:38:38;;;;;;;4.50;2.47;;;27.30;1.00;;;;;;5180938;28;20030;-87
2023/06/15 10:41:17;;;;;;;3.35;1.77;;;28.60;1.00;;;;;;5182571;28;20033;-87
2023/06/15 10:46:45;;;;;;;3.35;2.30;;;30.60;1.00;;;;;;5195999;28;20059;-64
2023/06/15 10:49:16;;;;;;;2.92;2.20;;;31.00;1.00;;;;;;5182715;28;20029;-64
2023/06/15 10:51:51;;;;;;;2.85;2.30;;;31.50;58.50;;;;;;5166297;28;20039;-64
2023/06/15 10:54:26;;;;;;;4.70;2.55;;;31.20;1.00;;;;;;5182832;28;20431;-62
2023/06/15 10:56:57;;;;;;;2.55;2.35;;;28.30;1.00;;;;;;5180521;28;20045;-63
2023/06/15 10:59:49;;;;;;;3.53;2.13;;;27.50;1.00;;;;;;5181582;28;20385;-62
2023/06/15 11:02:32;;;;;;;2.88;2.30;;;28.90;1.00;;;;;;5196773;28;20035;-63
2023/06/15 11:05:08;;;;;;;2.22;1.80;;;30.60;1.00;;;;;;5172570;28;20414;-61
2023/06/15 11:07:47;;;;;;;2.28;2.03;;;30.70;6.70;;;;;;5179489;28;20031;-63
2023/06/15 11:10:26;;;;;;;2.20;1.90;;;31.40;1.00;;;;;;5164752;28;20033;-65
2023/06/15 11:13:05;;;;;;;2.38;1.90;;;32.60;99.90;;;;;;5179802;28;20037;-64
2023/06/15 11:15:37;;;;;;;3.05;2.13;;;33.20;63.60;;;;;;5176621;28;20044;-65
2023/06/15 11:18:18;;;;;;;3.97;2.10;;;33.20;99.90;;;;;;5181980;28;20072;-64
2023/06/15 11:20:54;;;;;;;2.28;2.00;;;33.30;99.90;;;;;;5166580;28;20067;-64
2023/06/15 11:23:32;;;;;;;2.55;2.10;;;32.50;99.90;;;;;;5165361;28;20518;-63
2023/06/15 11:26:04;;;;;;;3.97;2.20;;;30.40;1.00;;;;;;5170868;28;20046;-63
2023/06/15 11:28:35;;;;;;;3.58;2.60;;;29.30;1.00;;;;;;5183219;28;20025;-64
2023/06/15 11:31:08;;;;;;;2.75;2.08;;;29.30;1.00;;;;;;5163794;28;20049;-65
2023/06/15 11:33:41;;;;;;;2.15;1.90;;;30.50;1.00;;;;;;5169841;28;20035;-61
2023/06/15 11:36:20;;;;;;;2.30;2.00;;;32.00;1.00;;;;;;5179339;28;20218;-61
2023/06/15 11:38:53;;;;;;;4.50;2.47;;;33.10;1.00;;;;;;5199086;28;20037;-65
2023/06/15 11:41:29;;;;;;;2.88;2.00;;;34.80;1.00;;;;;;5197525;28;20041;-62
2023/06/15 11:44:00;;;;;;;2.15;1.95;;;34.90;1.00;;;;;;5182229;28;20048;-63
2023/06/15 11:46:31;;;;;;;2.50;2.10;;;34.40;1.00;;;;;;5196016;28;20038;-61
2023/06/15 11:49:10;;;;;;;2.45;2.25;;;34.80;1.00;;;;;;5164899;28;20382;-63
2023/06/15 11:51:47;;;;;;;2.83;1.92;;;34.90;1.00;;;;;;5180377;28;20029;-63
2023/06/15 11:54:26;;;;;;;2.75;2.30;;;34.30;1.00;;;;;;5178466;28;20432;-62
2023/06/15 11:57:01;;;;;;;2.90;2.33;;;32.40;1.00;;;;;;5185310;28;20034;-64
2023/06/15 11:59:35;;;;;;;2.95;2.60;;;33.00;1.00;;;;;;5188492;28;20055;-63
2023/06/15 12:02:07;;;;;;;2.80;2.38;;;33.30;1.00;;;;;;5176477;28;20047;-62
2023/06/15 12:04:38;;;;;;;2.50;2.20;;;35.00;1.00;;;;;;5184703;28;20053;-63
2023/06/15 12:07:15;;;;;;;2.90;2.65;;;36.70;1.00;;;;;;5169866;28;20100;-65
2023/06/15 12:09:46;;;;;;;2.47;1.95;;;35.30;1.00;;;;;;5200377;28;20033;-60
2023/06/15 12:12:35;;;;;;;2.85;2.13;;;32.30;1.00;;;;;;5152244;28;20049;-63
2023/06/15 12:15:12;;;;;;;2.65;2.35;;;32.40;1.00;;;;;;5154425;28;20037;-65
2023/06/15 12:17:43;;;;;;;2.38;2.10;;;33.70;1.00;;;;;;5199657;28;20530;-62
2023/06/15 12:20:17;;;;;;;2.88;2.00;;;33.20;1.00;;;;;;5200308;28;20089;-66
2023/06/15 12:22:53;;;;;;;2.30;1.85;;;33.10;1.00;;;;;;5164757;28;20037;-63
2023/06/15 12:25:44;;;;;;;2.90;2.20;;;31.40;99.90;;;;;;5179681;28;20044;-62
2023/06/15 12:28:20;;;;;;;2.03;1.83;;;33.00;99.90;;;;;;5135144;28;20217;-61
2023/06/15 12:31:10;;;;;;;3.38;2.28;;;32.90;99.90;;;;;;5200752;28;20025;-63
2023/06/15 12:33:49;;;;;;;3.05;2.75;;;32.70;99.90;;;;;;5167587;28;20234;-62
2023/06/15 12:36:23;;;;;;;2.72;1.90;;;32.60;99.90;;;;;;5163912;28;20041;-62
2023/06/15 12:38:58;;;;;;;5.75;2.30;;;30.90;99.90;;;;;;5199294;28;20030;-61
2023/06/15 12:41:31;;;;;;;2.58;1.65;;;30.30;99.90;;;;;;5163040;28;20472;-64
2023/06/15 12:44:07;;;;;;;1.77;1.60;;;31.90;99.90;;;;;;5201315;28;20035;-65
2023/06/15 12:46:40;;;;;;;2.80;2.08;;;32.90;1.00;;;;;;5162500;28;20263;-65
2023/06/15 12:49:11;;;;;;;2.63;1.77;;;33.10;99.90;;;;;;5167630;28;20041;-63
2023/06/15 12:51:46;;;;;;;2.53;2.10;;;34.60;99.90;;;;;;5184471;28;20044;-63
2023/06/15 12:54:18;;;;;;;2.38;2.10;;;36.10;99.90;;;;;;5167455;28;20107;-62
2023/06/15 12:56:50;;;;;;;2.78;2.20;;;33.60;99.90;;;;;;5169346;28;20049;-63
2023/06/15 12:59:23;;;;;;;1.92;1.60;;;33.90;99.90;;;;;;5176645;28;20040;-65
2023/06/15 13:01:57;;;;;;;1.98;1.85;;;33.30;99.90;;;;;;5170392;28;20034;-66
2023/06/15 13:04:28;;;;;;;2.50;1.85;;;33.60;99.90;;;;;;5165980;28;20033;-64
2023/06/15 13:06:59;;;;;;;3.00;1.98;;;34.30;99.90;;;;;;5164200;28;20049;-67
2023/06/15 13:09:31;;;;;;;2.25;2.05;;;34.90;99.90;;;;;;5182979;28;20483;-63
2023/06/15 13:12:06;;;;;;;2.20;2.00;;;33.70;99.90;;;;;;5201234;28;20034;-66
2023/06/15 13:14:39;;;;;;;2.33;2.13;;;31.50;99.90;;;;;;5199354;28;20021;-61
2023/06/15 13:17:10;;;;;;;3.03;2.35;;;30.90;99.90;;;;;;5153671;28;20043;-62
2023/06/15 13:19:47;;;;;;;2.55;2.20;;;32.60;99.90;;;;;;5165268;28;20487;-65
2023/06/15 13:22:21;;;;;;;2.25;1.98;;;34.00;99.90;;;;;;5181988;28;20027;-61
2023/06/15 13:24:54;;;;;;;2.88;1.98;;;33.90;99.90;;;;;;5164492;28;20041;-63
2023/06/15 13:27:26;;;;;;;2.95;2.40;;;33.60;99.90;;;;;;5181796;28;20045;-62
2023/06/15 13:29:57;;;;;;;3.63;2.10;;;33.30;99.90;;;;;;5191275;28;20029;-64
2023/06/15 13:32:28;;;;;;;2.40;1.92;;;34.60;99.90;;;;;;5182491;28;20360;-64
2023/06/15 13:35:02;;;;;;;2.33;1.90;;;36.60;99.90;;;;;;5168395;28;20032;-64
2023/06/15 13:37:37;;;;;;;2.30;2.10;;;33.20;99.90;;;;;;5180322;28;20034;-67
2023/06/15 13:40:10;;;;;;;2.47;2.20;;;33.20;99.90;;;;;;5199098;28;20199;-66
2023/06/15 13:42:43;;;;;;;2.90;2.22;;;33.70;99.90;;;;;;5163523;28;20038;-63
2023/06/15 13:45:21;;;;;;;2.72;2.40;;;31.20;99.90;;;;;;5164472;28;20051;-64
2023/06/15 13:47:52;;;;;;;2.88;2.20;;;29.10;99.90;;;;;;5198500;28;20024;-64
2023/06/15 13:50:24;;;;;;;2.55;2.05;;;28.00;99.90;;;;;;5183503;28;20041;-63
2023/06/15 13:52:55;;;;;;;5.88;2.05;;;26.80;99.90;;;;;;5202107;28;20105;-64
2023/06/15 13:55:29;;;;;;;2.15;1.80;;;27.80;99.90;;;;;;5167962;28;20203;-64
2023/06/15 13:58:03;;;;;;;2.58;1.88;;;30.10;99.90;;;;;;5173877;28;20048;-62
2023/06/15 14:00:39;;;;;;;3.08;1.67;;;31.10;99.90;;;;;;5149165;28;20047;-62
2023/06/15 14:03:10;;;;;;;2.15;1.92;;;31.50;99.90;;;;;;5167932;28;20048;-63